createdAt,value
2019-03-18T00:00:14.474Z,996.26
2019-03-18T00:05:17.076Z,996.34
2019-03-18T00:10:01.305Z,996.34
2019-03-18T00:15:02.511Z,996.44
2019-03-18T00:20:20.382Z,996.41
2019-03-18T00:25:12.726Z,996.47
2019-03-18T00:30:10.465Z,996.54
2019-03-18T00:35:10.772Z,996.47
2019-03-18T00:40:17.177Z,996.62
2019-03-18T00:45:21.072Z,996.61
2019-03-18T00:50:16.990Z,996.69
2019-03-18T00:55:15.193Z,996.69
2019-03-18T01:00:12.995Z,996.74
2019-03-18T01:05:15.545Z,996.89
2019-03-18T01:10:10.681Z,996.93
2019-03-18T01:15:28.765Z,996.92
2019-03-18T01:20:17.690Z,996.95
2019-03-18T01:25:17.930Z,996.89
2019-03-18T01:30:09.585Z,996.89
2019-03-18T01:35:13.796Z,996.95
2019-03-18T01:40:10.121Z,996.95
2019-03-18T01:45:07.694Z,996.99
2019-03-18T01:50:17.492Z,996.96
2019-03-18T01:55:15.457Z,997.04
2019-03-18T02:00:13.067Z,997.05
2019-03-18T02:05:10.686Z,997.01
2019-03-18T02:10:12.927Z,997.1
2019-03-18T02:15:06.175Z,997.07
2019-03-18T02:20:11.091Z,997.12
2019-03-18T02:25:15.195Z,997.1
2019-03-18T02:30:12.427Z,997.04
2019-03-18T02:35:11.864Z,997.05
2019-03-18T02:40:11.233Z,997.03
2019-03-18T02:45:13.630Z,997.08
2019-03-18T02:50:16.785Z,997.03
2019-03-18T02:55:18.724Z,997.02
2019-03-18T03:00:15.792Z,997.05
2019-03-18T03:05:12.282Z,997.09
2019-03-18T03:10:07.665Z,997.12
2019-03-18T03:15:17.624Z,997.09
2019-03-18T03:20:13.851Z,997.1
2019-03-18T03:25:10.671Z,997.15
2019-03-18T03:30:12.703Z,997.14
2019-03-18T03:35:21.211Z,997.21
2019-03-18T03:40:20.536Z,997.31
2019-03-18T03:45:16.437Z,997.35
2019-03-18T03:50:18.469Z,997.44
2019-03-18T03:55:20.798Z,997.41
2019-03-18T04:00:16.503Z,997.44
2019-03-18T04:05:16.697Z,997.55
2019-03-18T04:10:08.372Z,997.51
2019-03-18T04:15:14.664Z,997.6
2019-03-18T04:20:18.703Z,997.66
2019-03-18T04:25:21.450Z,997.71
2019-03-18T04:30:17.293Z,997.79
2019-03-18T04:35:18.923Z,997.89
2019-03-18T04:40:19.783Z,997.92
2019-03-18T04:45:14.882Z,997.95
2019-03-18T04:50:18.994Z,997.99
2019-03-18T04:55:08.283Z,998
2019-03-18T05:00:14.735Z,997.98
2019-03-18T05:05:24.035Z,998.11
2019-03-18T05:10:15.330Z,998.13
2019-03-18T05:15:14.647Z,998.15
2019-03-18T05:20:16.416Z,998.24
2019-03-18T05:25:21.468Z,998.32
2019-03-18T05:30:16.808Z,998.37
2019-03-18T05:35:16.994Z,998.41
2019-03-18T05:40:09.220Z,998.42
2019-03-18T05:45:07.661Z,998.55
2019-03-18T05:50:18.233Z,998.64
2019-03-18T05:55:19.624Z,998.7
2019-03-18T06:00:16.756Z,998.83
2019-03-18T06:05:12.813Z,998.94
2019-03-18T06:10:15.746Z,999.03
2019-03-18T06:15:16.926Z,999.21
2019-03-18T06:20:19.029Z,999.3
2019-03-18T06:25:14.324Z,999.3
2019-03-18T06:30:16.960Z,999.37
2019-03-18T06:35:15.899Z,999.48
2019-03-18T06:40:11.868Z,999.62
2019-03-18T06:45:14.918Z,999.74
2019-03-18T06:50:15.980Z,999.95
2019-03-18T06:55:16.223Z,1000.02
2019-03-18T07:00:17.917Z,1000.11
2019-03-18T07:05:18.034Z,1000.14
2019-03-18T07:10:07.419Z,1000.17
2019-03-18T07:15:11.973Z,1000.14
2019-03-18T07:20:15.510Z,1000.2
2019-03-18T07:25:17.138Z,1000.24
2019-03-18T07:30:17.557Z,1000.37
2019-03-18T07:35:14.353Z,1000.37
2019-03-18T07:40:17.054Z,1000.43
2019-03-18T07:45:10.572Z,1000.57
2019-03-18T07:50:16.424Z,1000.62
2019-03-18T07:55:16.476Z,1000.71
2019-03-18T08:00:15.837Z,1000.78
2019-03-18T08:05:18.755Z,1000.84
2019-03-18T08:10:11.700Z,1000.89
2019-03-18T08:15:12.601Z,1000.91
2019-03-18T08:20:16.856Z,1001.02
2019-03-18T08:25:15.131Z,1001.06
2019-03-18T08:30:12.950Z,1001.17
2019-03-18T08:35:14.350Z,1001.18
2019-03-18T08:40:14.410Z,1001.35
2019-03-18T08:45:12.467Z,1001.36
2019-03-18T08:50:13.141Z,1001.44
2019-03-18T08:55:13.162Z,1001.47
2019-03-18T09:00:11.067Z,1001.55
2019-03-18T09:05:12.394Z,1001.54
2019-03-18T09:10:05.155Z,1001.58
2019-03-18T09:15:09.350Z,1001.61
2019-03-18T09:20:10.653Z,1001.63
2019-03-18T09:25:11.718Z,1001.69
2019-03-18T09:30:11.698Z,1001.69
2019-03-18T09:35:15.349Z,1001.7
2019-03-18T09:40:13.191Z,1001.88
2019-03-18T09:45:12.968Z,1001.98
2019-03-18T09:50:18.359Z,1002.03
2019-03-18T09:55:18.610Z,1002.11
2019-03-18T10:00:12.556Z,1002.08
2019-03-18T10:05:14.157Z,1002.26
2019-03-18T10:10:14.990Z,1002.16
2019-03-18T10:15:07.088Z,1002.2
2019-03-18T10:20:15.935Z,1002.29
2019-03-18T10:25:17.608Z,1002.42
2019-03-18T10:30:14.871Z,1002.35
2019-03-18T10:35:18.921Z,1002.37
2019-03-18T10:40:14.857Z,1002.4
2019-03-18T10:45:16.114Z,1002.54
2019-03-18T10:50:15.496Z,1002.6
2019-03-18T10:55:12.070Z,1002.79
2019-03-18T11:00:14.652Z,1002.7
2019-03-18T11:05:16.760Z,1002.87
2019-03-18T11:10:11.343Z,1002.86
2019-03-18T11:15:14.152Z,1002.86
2019-03-18T11:20:20.521Z,1002.82
2019-03-18T11:25:07.277Z,1002.87
2019-03-18T11:30:07.983Z,1002.83
2019-03-18T11:35:09.022Z,1002.81
2019-03-18T11:40:06.500Z,1002.8
2019-03-18T11:45:08.499Z,1002.85
2019-03-18T11:50:15.294Z,1002.85
2019-03-18T11:55:09.252Z,1002.83
2019-03-18T12:00:13.384Z,1002.81
2019-03-18T12:05:14.167Z,1002.75
2019-03-18T12:10:19.008Z,1002.79
2019-03-18T12:15:11.382Z,1002.83
2019-03-18T12:20:25.575Z,1002.87
2019-03-18T12:25:11.884Z,1003.09
2019-03-18T12:30:11.652Z,1003.21
2019-03-18T12:35:11.341Z,1003.04
2019-03-18T12:40:10.079Z,1003.04
2019-03-18T12:45:15.948Z,1003.03
2019-03-18T12:50:49.553Z,1003.07
2019-03-18T12:55:12.123Z,1003.09
2019-03-18T13:00:12.236Z,1003
2019-03-18T13:05:14.394Z,1002.95
2019-03-18T13:10:14.027Z,1002.89
2019-03-18T13:15:14.425Z,1002.77
2019-03-18T13:20:18.456Z,1002.75
2019-03-18T13:25:09.817Z,1002.74
2019-03-18T13:30:10.285Z,1002.72
2019-03-18T13:35:12.152Z,1002.82
2019-03-18T13:40:11.625Z,1002.83
2019-03-18T13:45:10.029Z,1002.78
2019-03-18T13:50:16.298Z,1002.95
2019-03-18T13:55:18.990Z,1002.96
2019-03-18T14:00:11.786Z,1003.06
2019-03-18T14:05:12.426Z,1003.08
2019-03-18T14:10:12.085Z,1003.15
2019-03-18T14:15:08.687Z,1003.24
2019-03-18T14:20:12.307Z,1003.23
2019-03-18T14:25:07.294Z,1003.2
2019-03-18T14:30:18.326Z,1003.32
2019-03-18T14:35:14.973Z,1003.42
2019-03-18T14:40:18.357Z,1003.48
2019-03-18T14:45:12.966Z,1003.49
2019-03-18T14:50:17.463Z,1003.49
2019-03-18T14:55:12.736Z,1003.62
2019-03-18T15:00:14.982Z,1003.69
2019-03-18T15:05:18.188Z,1003.75
2019-03-18T15:10:17.370Z,1003.75
2019-03-18T15:15:14.995Z,1003.68
2019-03-18T15:20:16.557Z,1003.66
2019-03-18T15:25:14.540Z,1003.7
2019-03-18T15:30:09.900Z,1003.72
2019-03-18T15:35:15.242Z,1003.7
2019-03-18T15:40:16.014Z,1003.76
2019-03-18T15:45:14.623Z,1003.72
2019-03-18T15:50:13.306Z,1003.77
2019-03-18T15:55:11.847Z,1003.79
2019-03-18T16:00:08.773Z,1003.76
2019-03-18T16:05:11.613Z,1003.83
2019-03-18T16:10:15.100Z,1003.86
2019-03-18T16:15:12.624Z,1003.88
2019-03-18T16:20:14.303Z,1003.94
2019-03-18T16:25:18.659Z,1004
2019-03-18T16:30:15.461Z,1004.12
2019-03-18T16:35:19.400Z,1004.13
2019-03-18T16:40:11.841Z,1004.16
2019-03-18T16:45:07.699Z,1004.2
2019-03-18T16:50:11.368Z,1004.21
2019-03-18T16:55:13.651Z,1004.24
2019-03-18T17:00:14.184Z,1004.33
2019-03-18T17:05:19.068Z,1004.28
2019-03-18T17:10:18.112Z,1004.36
2019-03-18T17:15:11.692Z,1004.41
2019-03-18T17:20:15.228Z,1004.46
2019-03-18T17:25:14.562Z,1004.54
2019-03-18T17:30:11.339Z,1004.57
2019-03-18T17:35:18.114Z,1004.66
2019-03-18T17:40:18.312Z,1004.76
2019-03-18T17:45:08.652Z,1004.73
2019-03-18T17:50:11.852Z,1004.81
2019-03-18T17:55:12.244Z,1004.94
2019-03-18T18:00:08.796Z,1005
2019-03-18T18:05:12.887Z,1005.07
2019-03-18T18:10:10.935Z,1005.16
2019-03-18T18:15:12.996Z,1005.24
2019-03-18T18:20:14.308Z,1005.3
2019-03-18T18:25:13.688Z,1005.35
2019-03-18T18:30:11.678Z,1005.35
2019-03-18T18:35:14.546Z,1005.51
2019-03-18T18:40:13.867Z,1005.56
2019-03-18T18:45:14.308Z,1005.57
2019-03-18T18:50:13.609Z,1005.68
2019-03-18T18:55:12.309Z,1005.82
2019-03-18T19:00:09.990Z,1005.83
2019-03-18T19:05:12.373Z,1005.87
2019-03-18T19:10:09.333Z,1005.86
2019-03-18T19:15:09.663Z,1005.97
2019-03-18T19:20:12.070Z,1006.1
2019-03-18T19:25:10.346Z,1006.15
2019-03-18T19:30:14.082Z,1006.23
2019-03-18T19:35:10.243Z,1006.28
2019-03-18T19:40:14.903Z,1006.3
2019-03-18T19:45:15.768Z,1006.38
2019-03-18T19:50:14.039Z,1006.44
2019-03-18T19:55:13.246Z,1006.42
2019-03-18T20:00:15.018Z,1006.48
2019-03-18T20:05:20.784Z,1006.58
2019-03-18T20:10:13.657Z,1006.67
2019-03-18T20:15:08.853Z,1006.63
2019-03-18T20:20:14.866Z,1006.64
2019-03-18T20:25:16.582Z,1006.77
2019-03-18T20:30:15.537Z,1006.89
2019-03-18T20:35:14.616Z,1006.95
2019-03-18T20:40:11.225Z,1006.96
2019-03-18T20:45:11.151Z,1007.03
2019-03-18T20:50:09.865Z,1007.17
2019-03-18T20:55:11.890Z,1007.23
2019-03-18T21:00:12.545Z,1007.27
2019-03-18T21:05:13.810Z,1007.31
2019-03-18T21:10:12.712Z,1007.39
2019-03-18T21:15:11.714Z,1007.46
2019-03-18T21:20:09.329Z,1007.5
2019-03-18T21:25:10.898Z,1007.55
2019-03-18T21:30:12.044Z,1007.68
2019-03-18T21:35:09.061Z,1007.72
2019-03-18T21:40:14.037Z,1007.77
2019-03-18T21:45:12.694Z,1007.86
2019-03-18T21:50:12.982Z,1007.84
2019-03-18T21:55:12.474Z,1008
2019-03-18T22:00:11.079Z,1007.95
2019-03-18T22:05:10.452Z,1007.99
2019-03-18T22:10:13.591Z,1008
2019-03-18T22:15:09.373Z,1008.1
2019-03-18T22:20:09.183Z,1008.07
2019-03-18T22:25:11.729Z,1008.11
2019-03-18T22:30:14.113Z,1008.21
2019-03-18T22:35:10.661Z,1008.22
2019-03-18T22:40:15.210Z,1008.26
2019-03-18T22:45:14.287Z,1008.28
2019-03-18T22:50:09.471Z,1008.33
2019-03-18T22:55:11.546Z,1008.26
2019-03-18T23:00:11.475Z,1008.23
2019-03-18T23:05:06.928Z,1008.27
2019-03-18T23:10:08.131Z,1008.24
2019-03-18T23:15:07.844Z,1008.22
2019-03-18T23:20:08.242Z,1008.24
2019-03-18T23:25:15.718Z,1008.23
2019-03-18T23:30:12.808Z,1008.27
2019-03-18T23:35:10.338Z,1008.32
2019-03-18T23:40:10.674Z,1008.44
2019-03-18T23:45:11.996Z,1008.43
2019-03-18T23:50:10.022Z,1008.43
2019-03-18T23:55:25.257Z,1008.42
